none
Windows 10 cannot receive OS security updates from WSUS RRS feed

  • Question

  • Hello experts,

    We use WSUS on windows 2012 R2 to push updates.

    For office and Adobe updates, all can be installed successfully.

    But for OS patch, most of the computers, if not all, only have the patches from Feb 2018. No problem if I install them manually.

    Here is the latest portion windows update log:

    2018/05/21 09:48:21.5802992 12244 11680 Handler         CBS called Progress with state=7, ticks=752, total=1000

    2018/05/21 09:48:22.5922251 12244 11680 Handler         CBS called Progress with state=7, ticks=752, total=1000

    2018/05/21 09:48:23.2929487 12244 11680 Handler         CBS called Progress with state=7, ticks=1000, total=1000

    2018/05/21 09:48:23.2957636 12244 11680 Handler         CBS called Terminate

    2018/05/21 09:48:28.6132061 12244 2476  Handler         Requesting post-reboot reporting for package Package_for_RollupFix~31bf3856ad364e35~amd64~~16299.431.1.8.

    2018/05/21 09:48:28.6135455 12244 2476  Handler         Completed install of CBS update with type=3, requiresReboot=1, installerError=0, hr=0x0

    2018/05/21 09:48:29.5952763 12244 2476  Handler         * END *   CBS Install

    2018/05/21 09:48:29.7474446 5756  5732  Handler         Loaded state: cCompleteIterations: 1, pt: SelfContainedNoExpressPayload, nNextRequestID: 1.

    2018/05/21 09:48:29.7705205 5756  5732  Agent           LogHistory called. idUpdate={0C160CF4-907D-4B03-A9D2-B64EFEB6B392}.501, resultMapped=80242014, resultUnMapped=0

    2018/05/21 09:48:29.7892213 5756  5732  Agent           Install updates CallerId = wusa

    2018/05/21 09:48:29.7894584 9756  10048 ComApi           Install ClientId = wusa

    2018/05/21 09:48:29.7894712 9756  10048 ComApi          Install call complete (succeeded = 1, succeeded with errors = 0, failed = 0, cancelled = 0, unaccounted = 0

    2018/05/21 09:48:29.7895762 9756  10048 ComApi          Reboot required = True

    2018/05/21 09:48:29.7895807 9756  10048 ComApi          * END *   Install ClientId = wusa

    2018/05/21 09:48:29.7897657 5756  8108  Agent           WU client calls back to install call {D66F9229-A0A7-4A85-ACB7-8B8FDB1052F8} with code Call complete and error 0

    2018/05/21 09:48:29.8021500 5756  5732  IdleTimer       WU operation (CInstallCall::Init ID 3, operation # 29) stopped; does not use network; is not at background priority

    2018/05/21 09:53:55.9351293 9756  4184  ComApi          Installation wizard (API) invoking RebootSystem

    2018/05/21 09:53:55.9937034 5756  10844 DataStore       Service 4461FE89-1383-47F0-89F3-0FE5E68342B4 removed

    2018/05/21 09:53:55.9988570 9756  4184  ComApi          IUpdateService removing volatile scan package service, serviceID = {4461FE89-1383-47F0-89F3-0FE5E68342B4}

    2018/05/21 09:53:56.0032082 9756  4184  ComApi          *FAILED* [80248014] ISusInternal:: RemoveService

    2018/05/21 09:56:35.9609554 5756  10960 Misc            CSusClientGlobal::DoServicePreShutdown

    2018/05/21 09:56:35.9609577 5756  10960 IdleTimer       Idle timer disabled in preparation for service shutdown

    2018/05/21 09:56:35.9609653 5756  10960 Misc            WUTaskManager uninit

    2018/05/21 09:56:35.9609679 5756  10960 Agent           Earliest future timer found:

    2018/05/21 09:56:35.9609785 5756  10960 Agent               Timer: 29A863E7-8609-4D1E-B7CD-5668F857F1DB, Expires 2018-05-22 00:39:44, not idle-only, not network-only

    2018/05/21 09:56:36.0321917 5756  10960 Misc            CreateSessionStateChangeTrigger, TYPE:2, Enable:Yes

    2018/05/21 09:56:36.0321981 5756  10960 Misc            CreateSessionStateChangeTrigger, TYPE:4, Enable:Yes

    2018/05/21 09:56:36.0410912 5756  10960 Misc            Agent uninit

    2018/05/21 09:56:36.0983789 5756  10960 Misc            Reporter uninit

    2018/05/21 09:56:36.0990140 5756  10960 Misc            network cost manager uninit

    2018/05/21 09:56:36.0990374 5756  10960 Misc            Eventer uninit

    2018/05/21 09:56:36.0991506 5756  10960 Misc            ServiceManager uninit

    2018/05/21 09:56:36.0992745 5756  10960 Misc            PersistentTimeoutScheduler uninit

    2018/05/21 09:56:36.0992764 5756  10960 Misc            datastore uninit

    2018/05/21 09:56:36.3543395 5756  10960 Misc            setting cache uninit

    2018/05/21 09:56:36.3543426 5756  10960 Misc            security checker uninit

    2018/05/21 09:56:36.3543471 5756  10960 Misc            Test Hook uninit

    2018/05/21 09:56:36.3543482 5756  10960 Misc            IdleTimer uninit

    2018/05/21 09:56:36.3552072 5756  10960 Shared          * END * Service exit Exit code = 0x240001

    2018/05/21 09:57:32.1222785 5328  7820  Shared          * START * Service startup

    2018/05/21 09:57:32.1403163 5328  7820  IdleTimer       Non-AoAc machine.  Aoac operations will be ignored.

    2018/05/21 09:57:32.1412886 5328  7820  Agent           WU client version 10.0.16299.431

    2018/05/21 09:57:32.1416481 5328  7820  Agent           SleepStudyTracker: Machine is non-AOAC. Sleep study tracker disabled.

    2018/05/21 09:57:32.1421642 5328  7820  Agent           Base directory: C:\WINDOWS\SoftwareDistribution

    2018/05/21 09:57:32.1429175 5328  7820  Agent           Datastore directory: C:\WINDOWS\SoftwareDistribution\DataStore\DataStore.edb

    2018/05/21 09:57:32.1444682 5328  7820  DataStore       JetEnableMultiInstance succeeded - applicable param count: 5, applied param count: 5

    2018/05/21 09:57:32.1933895 5328  7820  Shared          UpdateNetworkState Ipv6, cNetworkInterfaces = 1.

    2018/05/21 09:57:32.1936965 5328  7820  Shared          UpdateNetworkState Ipv4, cNetworkInterfaces = 1.

    2018/05/21 09:57:32.1950350 5328  7820  Shared          Network state: Connected

    2018/05/21 09:57:32.3564929 5328  7820  Misc            *FAILED* [8024000C] LoadHistoryEventFromRegistry completed

    2018/05/21 09:57:32.3566122 5328  7820  Shared          UpdateNetworkState Ipv6, cNetworkInterfaces = 1.

    2018/05/21 09:57:32.3566213 5328  7820  Shared          UpdateNetworkState Ipv4, cNetworkInterfaces = 1.

    2018/05/21 09:57:32.3566319 5328  7820  Shared          Power status changed

    2018/05/21 09:57:32.3636167 5328  7820  Agent           Initializing global settings cache

    2018/05/21 09:57:32.3636201 5328  7820  Agent           WSUS server: http://ewwosrv02.mydomain.local:8530

    2018/05/21 09:57:32.3636481 5328  7820  Agent           WSUS status server: http://ewwosrv02.mydomain.local:8530

    2018/05/21 09:57:32.3636515 5328  7820  Agent           Alternate Download Server: (null)

    2018/05/21 09:57:32.3636530 5328  7820  Agent           Fill Empty Content Urls: No

    2018/05/21 09:57:32.3636541 5328  7820  Agent           Target group: Clients

    2018/05/21 09:57:32.3636552 5328  7820  Agent           Windows Update access disabled: No

    2018/05/21 09:57:32.3636568 5328  7820  Agent           Do not connect to Windows Update Internet locations: Yes

    2018/05/21 09:57:32.3661288 5328  7820  Agent               Timer: 29A863E7-8609-4D1E-B7CD-5668F857F1DB, Expires 2018-05-22 00:39:44, not idle-only, not network-only

    2018/05/21 09:57:32.3821129 5328  7820  Agent           Initializing Windows Update Agent

    2018/05/21 09:57:32.3828685 5328  7820  Agent           CPersistentTimeoutScheduler | GetTimer, returned hr = 0x00000000

    2018/05/21 09:57:32.3862652 5328  7820  Agent           Attempt 1 to obtain post-reboot results for event with cookie 30666916_2642277883.

    2018/05/21 09:57:36.3043391 5328  7820  Handler         Post-reboot status for session 30666916_2642277883: 0x00000000.

    2018/05/21 09:57:36.3133996 5328  7820  Reporter        OS Product Type = 0x00000030

    2018/05/21 09:57:36.5907722 5328  9184  DownloadManager PurgeExpiredFiles::Found 0 expired files to delete.

    2018/05/21 09:57:36.5910543 5328  9184  DownloadManager PurgeExpiredUpdates::Found 220 non expired updates.

    2018/05/21 09:57:36.8218130 5328  9184  DownloadManager PurgeExpiredUpdates::Found 0 expired updates.

    2018/05/21 09:57:36.8268960 5328  9184  DownloadManager Received power state change notification: Old: <unknown>; New: AC.

    2018/05/21 09:57:36.8268994 5328  9184  DownloadManager Power state changed from <unknown> to AC.

    2018/05/21 09:58:19.6073839 11784 12196 ComApi          * START *   EvaluateHardwareCapabilities

    2018/05/21 09:58:22.4557873 11784 12196 ComApi          * END *   EvaluateHardwareCapabilities 00000000

    2018/05/21 10:00:00.1175429 5328  3612  ComApi          IUpdateServiceManager::AddService2

    2018/05/21 10:00:00.1175456 5328  3612  ComApi          Service ID = {7971f918-a847-4430-9279-4a52d1efe18d}

    2018/05/21 10:00:00.1175493 5328  3612  ComApi          Allow pending registration = Yes; Allow online registration = Yes; Register service with AU = Yes

    2018/05/21 10:00:00.1197246 5328  3612  Misc            *FAILED* [8024500C] Method failed [CSLSEndpointProvider::GetWUClientData:1996]

    2018/05/21 10:00:00.1197321 5328  3612  Misc            *FAILED* [8024500C] Failed to obtain 9482F4B4-E343-43B6-B170-9A65BC822C77 redir SecondaryServiceAuth URL

    2018/05/21 10:00:00.1197404 5328  3612  Agent           Failed to verify authenticity of service 117cab2d-82b1-4b5a-a08c-4d62dbee7782, hr=0

    2018/05/21 10:00:00.1197457 5328  3612  Agent           Caller Service Recovery failed to opt in to service 117cab2d-82b1-4b5a-a08c-4d62dbee7782, hr=0X8024500C (cV: )

    2018/05/21 10:00:00.1204903 5328  3612  Misc            *FAILED* [8024500C] Method failed [CSLSEndpointProvider::GetWUClientData:1996]

    2018/05/21 10:00:00.1204975 5328  3612  Misc            *FAILED* [8024500C] Failed to obtain 9482F4B4-E343-43B6-B170-9A65BC822C77 redir SecondaryServiceAuth URL

    2018/05/21 10:00:00.1205009 5328  3612  Agent           Failed to verify authenticity of service 7971f918-a847-4430-9279-4a52d1efe18d, hr=0

    2018/05/21 10:00:00.1217492 5328  3612  ComApi          Added service, URL = https://fe2.update.microsoft.com/v6/

    2018/05/21 10:00:00.1278437 5328  3612  ComApi          * START *   Federated Search ClientId = UpdateOrchestrator (cV: rxKMZ8hQVkeuVlFF.0.1.0)

    2018/05/21 10:00:00.1280246 5328  3612  IdleTimer       WU operation (SR.UpdateOrchestrator ID 1) started; operation # 63; does use network; is not at background priority

    2018/05/21 10:00:00.1282307 5328  11096 IdleTimer       WU operation (SR.UpdateOrchestrator ID 1, operation # 63) stopped; does use network; is not at background priority

    2018/05/21 10:00:00.1379474 5328  11768 ComApi          Federated Search: Starting search against 1 service(s) (cV = rxKMZ8hQVkeuVlFF.0.1.0)

    2018/05/21 10:00:00.1380860 5328  11768 ComApi          * START *   Search ClientId = UpdateOrchestrator, ServiceId = 3DA21691-E39D-4DA6-8A4B-B43877BCB1B7 (cV = rxKMZ8hQVkeuVlFF.0.1.0.0)

    2018/05/21 10:00:00.1387271 5328  11768 IdleTimer       WU operation (CSearchCall::Init ID 2) started; operation # 66; does use network; is at background priority

    2018/05/21 10:00:00.1634364 5328  11768 Agent           * START * Queueing Finding updates [CallerId = UpdateOrchestrator  Id = 2]

    2018/05/21 10:00:00.1634473 5328  11768 Agent           Service 3DA21691-E39D-4DA6-8A4B-B43877BCB1B7 is not in sequential scan list

    2018/05/21 10:00:00.1634545 5328  11768 Agent           Added service 3DA21691-E39D-4DA6-8A4B-B43877BCB1B7 to sequential scan list

    2018/05/21 10:00:00.1637415 5328  10048 Agent           Service 3DA21691-E39D-4DA6-8A4B-B43877BCB1B7 is in sequential scan list

    2018/05/21 10:00:00.1713962 5328  2684  Agent           * END * Queueing Finding updates [CallerId = UpdateOrchestrator  Id = 2]

    2018/05/21 10:00:00.1789134 5328  2684  Agent           * START * Finding updates CallerId = UpdateOrchestrator  Id = 2

    2018/05/21 10:00:00.1789191 5328  2684  Agent           Online = Yes; Interactive = No; AllowCachedResults = No; Ignore download priority = No

    2018/05/21 10:00:00.1789240 5328  2684  Agent           Criteria = IsInstalled=0 and DeploymentAction='Installation' or IsPresent=1 and DeploymentAction='Uninstallation' or IsInstalled=1 and DeploymentAction='Installation' and RebootRequired=1 or IsInstalled=0 and DeploymentAction='Uninstallation' and RebootRequired=1""

    2018/05/21 10:00:00.1789286 5328  2684  Agent           ServiceID = {3DA21691-E39D-4DA6-8A4B-B43877BCB1B7} Managed

    2018/05/21 10:00:00.1789297 5328  2684  Agent           Search Scope = {Machine}

    2018/05/21 10:00:00.1789353 5328  2684  Agent           Caller SID for Applicability: S-1-5-21-3814888480-1449635806-2613578883-14342

    2018/05/21 10:00:00.1789365 5328  2684  Agent           ProcessDriverDeferrals is set

    2018/05/21 10:00:00.6705944 5328  2684  Agent           Blocking Windows content for WUfB

    2018/05/21 10:00:00.7310417 5328  2684  Misc            Got WSUS Client/Server URL: http://ewwosrv02.mydomain.local:8530/ClientWebService/client.asmx""

    2018/05/21 10:00:00.7825514 5328  2684  Driver          Skipping printer driver 4 due to incomplete info or mismatched environment - HWID[(null)] Provider[HP] MfgName[HP] Name[HP LaserJet Mono PCLmS Class Driver] pEnvironment[Windows x64] LocalPrintServerEnv[Windows x64]

    2018/05/21 10:00:00.7825551 5328  2684  Driver          Skipping printer driver 8 due to incomplete info or mismatched environment - HWID[(null)] Provider[Microsoft] MfgName[Microsoft] Name[Remote Desktop Easy Print] pEnvironment[Windows x64] LocalPrintServerEnv[Windows x64]

    2018/05/21 10:00:00.7825604 5328  2684  Driver          Skipping printer driver 12 due to incomplete info or mismatched environment - HWID[microsoftmicrosoft_musd] Provider[Microsoft] MfgName[Microsoft] Name[Microsoft enhanced Point and Print compatibility driver] pEnvironment[Windows NT x86] LocalPrintServerEnv[Windows x64]

    2018/05/21 10:00:01.8633356 5328  2684  ProtocolTalker  ServiceId = {3DA21691-E39D-4DA6-8A4B-B43877BCB1B7}, Server URL = http://ewwosrv02.mydomain.local:8530/ClientWebService/client.asmx

    2018/05/21 10:00:01.8634950 5328  2684  ProtocolTalker  OK to reuse existing configuration

    2018/05/21 10:00:01.9040283 5328  2684  ProtocolTalker  Cached cookie has expired or new PID is available

    2018/05/21 10:00:01.9040468 5328  2684  Misc            Got WSUS SimpleTargeting URL: http://ewwosrv02.mydomain.local:8530""

    2018/05/21 10:00:01.9043024 5328  2684  IdleTimer       WU operation (CAuthorizationCookieWrapper::InitializeSimpleTargetingCookie) started; operation # 67; does use network; is at background priority

    2018/05/21 10:00:01.9043085 5328  2684  ProtocolTalker  Initializing simple targeting cookie, clientId = aebeffdb-05c8-4ac8-a232-e820242523a9, target group = Clients, DNS name = ewwowks0101.mydomain.local

    2018/05/21 10:00:01.9043104 5328  2684  ProtocolTalker    Server URL = http://ewwosrv02.mydomain.local:8530/SimpleAuthWebService/SimpleAuth.asmx

    2018/05/21 10:00:01.9043470 5328  2684  WebServices     Auto proxy settings for this web service call.

    2018/05/21 10:00:01.9309498 5328  2684  IdleTimer       WU operation (CAuthorizationCookieWrapper::InitializeSimpleTargetingCookie, operation # 67) stopped; does use network; is at background priority

    2018/05/21 10:00:01.9509243 5328  2684  IdleTimer       WU operation (CAgentProtocolTalker::GetCookie_WithRecovery) started; operation # 68; does use network; is at background priority

    2018/05/21 10:00:01.9510568 5328  2684  WebServices     Auto proxy settings for this web service call.

    2018/05/21 10:00:01.9780599 5328  2684  IdleTimer       WU operation (CAgentProtocolTalker::GetCookie_WithRecovery, operation # 68) stopped; does use network; is at background priority

    2018/05/21 10:00:01.9780780 5328  2684  ProtocolTalker  PTInfo: Server requested registration

    2018/05/21 10:00:02.1555517 5328  2684  ProtocolTalker  PTInfo: Calling RegisterComputer

    2018/05/21 10:00:02.1555604 5328  2684  IdleTimer       WU operation (CAgentProtocolTalker::RegisterComputer_WithRecovery) started; operation # 69; does use network; is at background priority

    2018/05/21 10:00:02.1706916 5328  2684  IdleTimer       WU operation (CAgentProtocolTalker::RegisterComputer_WithRecovery, operation # 69) stopped; does use network; is at background priority

    2018/05/21 10:00:02.1766819 5328  2684  Agent           Update filtered by policy: 6964AAB4-C5B5-43BD-A17D-FFB4346A8E1D.100

    2018/05/21 10:00:04.0890280 5328  2684  IdleTimer       WU operation (CAgentProtocolTalker::SyncUpdates_WithRecover) started; operation # 70; does use network; is at background priority

    2018/05/21 10:00:04.1030785 5328  2684  IdleTimer       WU operation (CAgentProtocolTalker::SyncUpdates_WithRecover, operation # 70) stopped; does use network; is at background priority

    2018/05/21 10:00:04.1078474 5328  2684  Agent           Update filtered by policy: 6964AAB4-C5B5-43BD-A17D-FFB4346A8E1D.100

    2018/05/21 10:00:04.1227456 5328  2684  IdleTimer       WU operation (CAgentProtocolTalker::SyncUpdates_WithRecover) started; operation # 71; does use network; is at background priority

    2018/05/21 10:00:04.1315489 5328  2684  IdleTimer       WU operation (CAgentProtocolTalker::SyncUpdates_WithRecover, operation # 71) stopped; does use network; is at background priority

    2018/05/21 10:00:04.1315610 5328  2684  ProtocolTalker  SyncUpdates round trips: 2

    2018/05/21 10:00:04.1542468 5328  2684  Agent           Update filtered by policy: 6964AAB4-C5B5-43BD-A17D-FFB4346A8E1D.100

    2018/05/21 10:00:04.1736047 5328  2684  Agent           Update filtered by policy: 6964AAB4-C5B5-43BD-A17D-FFB4346A8E1D.100

    2018/05/21 10:00:05.0434509 5328  2684  EEHandler       DeterminePatchSequence succeeded but status indicated an error 0x00000000

    2018/05/21 10:00:06.3320434 5328  2684  EEHandler       DeterminePatchSequence succeeded but status indicated an error 0x00000000

    2018/05/21 10:00:07.1857979 5328  2684  EEHandler       DeterminePatchSequence succeeded but status indicated an error 0x00000000

    2018/05/21 10:00:07.6221941 5328  2684  EEHandler       DeterminePatchSequence succeeded but status indicated an error 0x00000000

    2018/05/21 10:00:09.1737485 5328  2684  EEHandler       DeterminePatchSequence succeeded but status indicated an error 0x00000000

    2018/05/21 10:00:09.5175162 5328  2684  EEHandler       DeterminePatchSequence succeeded but status indicated an error 0x00000000

    2018/05/21 10:00:10.0711163 5328  2684  EEHandler       DeterminePatchSequence succeeded but status indicated an error 0x00000000

    2018/05/21 10:00:10.4164826 5328  2684  EEHandler       DeterminePatchSequence succeeded but status indicated an error 0x00000000

    2018/05/21 10:00:10.6699351 5328  2684  Agent           Found 0 updates and 82 categories in search; evaluated appl. rules of 1516 out of 2499 deployed entities

    2018/05/21 10:00:10.6939584 5328  2684  Agent           * END * Finding updates CallerId = UpdateOrchestrator  Id = 2

    2018/05/21 10:00:10.6988454 5328  2684  IdleTimer       WU operation (CSearchCall::Init ID 2, operation # 66) stopped; does use network; is at background priority

    2018/05/21 10:00:10.7019691 5328  7128  ComApi          *RESUMED*   Search ClientId = UpdateOrchestrator, ServiceId = 3DA21691-E39D-4DA6-8A4B-B43877BCB1B7 (cV = rxKMZ8hQVkeuVlFF.0.1.0.0)

    2018/05/21 10:00:10.7035123 5328  7128  ComApi          * END *   Search ClientId = UpdateOrchestrator, Updates found = 0, ServiceId = 3DA21691-E39D-4DA6-8A4B-B43877BCB1B7 (cV = rxKMZ8hQVkeuVlFF.0.1.0.0)

    2018/05/21 10:00:10.7037804 5328  11768 ComApi          * END *   All federated searches have completed. Jobs = 1, Succeeded = 1, ClientId = UpdateOrchestrator (cV = rxKMZ8hQVkeuVlFF.0.1.0)

    2018/05/21 10:00:10.7054500 5328  3612  ComApi          * START *   Federated Search ClientId = UpdateOrchestrator (cV: +y1yE5EebkGIOClZ.0.1.0)

    2018/05/21 10:00:10.7055780 5328  3612  IdleTimer       WU operation (SR.UpdateOrchestrator ID 3) started; operation # 78; does use network; is not at background priority

    2018/05/21 10:00:10.7056487 5328  11096 Agent           Processing auto/pending service registrations and recovery.

    2018/05/21 10:00:10.7057683 5328  11096 Misc            *FAILED* [8024500C] Method failed [CSLSEndpointProvider::GetWUClientData:1996]

    2018/05/21 10:00:10.7057721 5328  11096 Misc            *FAILED* [8024500C] Method failed [CSLSEndpointProvider::GetSecondaryServicesEnabledState:1503]

    2018/05/21 10:00:10.7057827 5328  11096 Agent           *FAILED* [8024500C] Method failed [CAgentServiceManager::DetectAndToggleServiceState:2880]

    2018/05/21 10:00:10.7057887 5328  11096 Agent           Failed to resolve federated serviceId 7971F918-A847-4430-9279-4A52D1EFE18D, hr=8024500c

    2018/05/21 10:00:10.7057974 5328  11096 Agent           *FAILED* [8024500C] Failed to execute service registration call {F5737DC9-1B3A-4730-A46A-65348EC22661} (cV: +y1yE5EebkGIOClZ.0.1.0.1)

    2018/05/21 10:00:10.7058114 5328  11096 IdleTimer       WU operation (SR.UpdateOrchestrator ID 3, operation # 78) stopped; does use network; is not at background priority

    2018/05/21 10:00:10.7176508 5328  7128  ComApi          * END *   Federated Search failed to process service registration, hr=0x8024500C (cV = +y1yE5EebkGIOClZ.0.1.0)

    2018/05/21 10:03:00.3212385 11444 8120  AppAU           * START *

    2018/05/21 10:03:00.3213541 11444 8120  AppAU           Flight settings ring provisioned default, range-checked minimum search interval: 20 hours

    2018/05/21 10:03:00.3299893 11444 8120  AppAU           * START * Finding app updates

    2018/05/21 10:03:00.4345423 9952  12268 ComApi          * START *   SLS Discovery

    2018/05/21 10:03:00.4366885 5328  7140  IdleTimer       WU operation (CDiscoveryCall::Init ID 4) started; operation # 131; does use network; is not at background priority

    2018/05/21 10:03:00.4368056 9952  12268 ComApi          *QUEUED* SLS Discovery

    2018/05/21 10:03:00.4373134 5328  1372  IdleTimer       WU operation (CDiscoveryCall::Init ID 4, operation # 131) stopped; does use network; is not at background priority

    2018/05/21 10:03:00.4415268 9952  10928 ComApi          *RESUMED* Discovery

    2018/05/21 10:03:00.4415446 9952  10928 ComApi          Exit code = 0x00000000, Result code = 0x8024500C

    2018/05/21 10:03:00.4415487 9952  10928 Api             * END *   Discovery ClientId

    2018/05/21 10:03:00.4430390 9952  12268 ComApi          *FAILED* [8024500C] Method failed [CSLSClientProxy::GetSLSDataChunk:247]

    2018/05/21 10:03:00.4673024 12056 692   ComApi          * START *   SLS Discovery

    2018/05/21 10:03:00.4709083 5328  6236  IdleTimer       WU operation (CDiscoveryCall::Init ID 5) started; operation # 136; does use network; is not at background priority

    2018/05/21 10:03:00.4710733 12056 692   ComApi          *QUEUED* SLS Discovery

    2018/05/21 10:03:00.4712104 5328  1372  IdleTimer       WU operation (CDiscoveryCall::Init ID 5, operation # 136) stopped; does use network; is not at background priority

    2018/05/21 10:03:00.4727290 12056 8520  ComApi          *RESUMED* Discovery

    2018/05/21 10:03:00.4727396 12056 8520  ComApi          Exit code = 0x00000000, Result code = 0x8024500C

    2018/05/21 10:03:00.4727411 12056 8520  Api             * END *   Discovery ClientId

    2018/05/21 10:03:00.4744821 12056 692   ComApi          *FAILED* [8024500C] Method failed [CSLSClientProxy::GetSLSDataChunk:247]

    2018/05/21 10:03:00.4805970 9952  12268 ComApi          * START *   Federated Search ClientId = Update;taskhostw (cV: LjjJ38kQFEesKBWP.0.3.1.1.0)

    2018/05/21 10:03:00.4816818 5328  7140  IdleTimer       WU operation (SR.Update;taskhostw ID 6) started; operation # 141; does use network; is not at background priority

    2018/05/21 10:03:00.4817494 5328  11096 Agent           Processing auto/pending service registrations and recovery.

    2018/05/21 10:03:00.4818397 5328  11096 Misc            *FAILED* [8024500C] Method failed [CSLSEndpointProvider::GetWUClientData:1996]

    On WSUS, these needed OS patches are of status "Not Applicable".

    Monday, May 21, 2018 2:57 AM

All replies

  • Hi,

    "No problem if I install them manually."

    Do you mean you test on client side? It is available to install update package manually which is not available to install through WSUS, right?

    If yes, I would recommend to ask for help from WSUS forum as your issue is more related with WSUS, and they should have more resources to help you. 

    Bests,

    Joy.


    Please remember to mark the replies as answers if they help.
    If you have feedback for TechNet Subscriber Support, contact tnmff@microsoft.com.

    Tuesday, May 22, 2018 3:22 AM
    Moderator
  • Thank you, I will move this question to WSUS.
    Tuesday, December 3, 2019 12:25 AM